Time;durP1;ratioP1;P1;durP2;ratioP2;P2;SDS_P1;SDS_P2;PMS_P1;PMS_P2;Temp;Humidity;BMP_temperature;BMP_pressure;BME280_temperature;BME280_humidity;BME280_pressure;Samples;Min_cycle;Max_cycle;Signal;HPM_P1;HPM_P2
2021/05/16 00:00:15;;;;;;;8.88;4.88;;;;;;;;;;6306179;28;20392;-71
2021/05/16 00:03:16;;;;;;;9.25;4.40;;;;;;;;;;6305382;28;20075;-71
2021/05/16 00:06:20;;;;;;;6.68;4.10;;;;;;;;;;6307918;28;20135;-71
2021/05/16 00:09:21;;;;;;;6.03;3.67;;;;;;;;;;6307245;28;20047;-72
2021/05/16 00:12:22;;;;;;;6.05;3.92;;;;;;;;;;6304180;28;20050;-71
2021/05/16 00:15:24;;;;;;;5.30;3.90;;;;;;;;;;6310102;28;20089;-71
2021/05/16 00:18:25;;;;;;;5.28;3.80;;;;;;;;;;6308535;28;20206;-71
2021/05/16 00:21:27;;;;;;;5.22;4.22;;;;;;;;;;6307811;28;20428;-71
2021/05/16 00:24:28;;;;;;;7.00;4.18;;;;;;;;;;6306665;28;20127;-72
2021/05/16 00:27:31;;;;;;;5.55;3.92;;;;;;;;;;6312419;28;20073;-71
2021/05/16 00:30:33;;;;;;;7.70;4.10;;;;;;;;;;6311576;28;20070;-71
2021/05/16 00:33:34;;;;;;;10.32;6.07;;;;;;;;;;6306200;28;20365;-70
2021/05/16 00:36:36;;;;;;;6.50;4.72;;;;;;;;;;6289616;28;20119;-71
2021/05/16 00:39:37;;;;;;;5.45;4.28;;;;;;;;;;6305524;28;20071;-71
2021/05/16 00:42:38;;;;;;;8.05;4.60;;;;;;;;;;6306986;28;20702;-72
2021/05/16 00:45:39;;;;;;;7.97;4.65;;;;;;;;;;6309413;28;20139;-70
2021/05/16 00:48:40;;;;;;;7.07;4.50;;;;;;;;;;6307961;28;20080;-72
2021/05/16 00:51:42;;;;;;;7.75;4.93;;;;;;;;;;6310946;28;20483;-72
2021/05/16 00:54:43;;;;;;;5.82;4.65;;;;;;;;;;6311628;28;20039;-70
2021/05/16 00:57:45;;;;;;;6.03;4.43;;;;;;;;;;6310040;28;20080;-72
2021/05/16 01:00:46;;;;;;;7.30;4.20;;;;;;;;;;6307316;28;20131;-70
2021/05/16 01:03:47;;;;;;;5.78;4.13;;;;;;;;;;6310125;28;20055;-70
2021/05/16 01:06:49;;;;;;;5.65;4.43;;;;;;;;;;6308104;22;20062;-73
2021/05/16 01:09:50;;;;;;;10.80;5.68;;;;;;;;;;6274460;28;20068;-72
2021/05/16 01:12:55;;;;;;;7.75;4.72;;;;;;;;;;6272873;28;20053;-72
2021/05/16 01:15:56;;;;;;;6.80;4.57;;;;;;;;;;6271725;28;20036;-71
2021/05/16 01:18:57;;;;;;;7.45;4.38;;;;;;;;;;6280017;28;20055;-72
2021/05/16 01:21:59;;;;;;;9.18;4.93;;;;;;;;;;6289816;28;20059;-71
2021/05/16 01:25:00;;;;;;;7.78;4.50;;;;;;;;;;6287156;28;20131;-72
2021/05/16 01:28:02;;;;;;;5.63;5.00;;;;;;;;;;6287118;28;20045;-71
2021/05/16 01:31:10;;;;;;;6.70;4.82;;;;;;;;;;6289019;28;20135;-72
2021/05/16 01:34:11;;;;;;;7.18;5.78;;;;;;;;;;6288790;28;20381;-72
2021/05/16 01:37:17;;;;;;;6.68;5.70;;;;;;;;;;6277312;28;20068;-71
2021/05/16 01:40:19;;;;;;;7.80;5.70;;;;;;;;;;6276298;28;20051;-73
2021/05/16 01:43:20;;;;;;;6.57;5.32;;;;;;;;;;6284092;28;20044;-71
2021/05/16 01:46:21;;;;;;;8.10;5.63;;;;;;;;;;6288971;28;20093;-71
2021/05/16 01:49:22;;;;;;;8.07;5.88;;;;;;;;;;6296043;28;20079;-72
2021/05/16 01:52:30;;;;;;;7.88;6.10;;;;;;;;;;6282591;28;20051;-72
2021/05/16 01:55:31;;;;;;;7.00;5.80;;;;;;;;;;6275317;28;20041;-71
2021/05/16 01:58:32;;;;;;;7.20;5.80;;;;;;;;;;6273797;28;20140;-72
2021/05/16 02:01:33;;;;;;;7.93;6.60;;;;;;;;;;6277597;28;20343;-72
2021/05/16 02:04:35;;;;;;;10.48;7.20;;;;;;;;;;6272346;28;20141;-73
2021/05/16 02:07:37;;;;;;;7.15;6.10;;;;;;;;;;6272948;28;20052;-72
2021/05/16 02:10:39;;;;;;;7.32;5.97;;;;;;;;;;6269505;28;20060;-72
2021/05/16 02:13:41;;;;;;;9.68;7.07;;;;;;;;;;6278873;28;20143;-71
2021/05/16 02:16:42;;;;;;;6.22;5.63;;;;;;;;;;6274746;28;20045;-72
2021/05/16 02:19:43;;;;;;;6.78;5.90;;;;;;;;;;6285569;28;20139;-71
2021/05/16 02:22:45;;;;;;;8.25;6.45;;;;;;;;;;6291497;28;20709;-71
2021/05/16 02:25:49;;;;;;;6.65;5.80;;;;;;;;;;6278734;28;20057;-71
2021/05/16 02:28:50;;;;;;;8.65;5.28;;;;;;;;;;6291202;28;20049;-72
2021/05/16 02:31:51;;;;;;;7.32;6.03;;;;;;;;;;6284129;28;20190;-72
2021/05/16 02:34:52;;;;;;;7.72;5.32;;;;;;;;;;6283433;28;20065;-71
2021/05/16 02:37:54;;;;;;;5.82;5.25;;;;;;;;;;6280837;28;20041;-72
2021/05/16 02:40:56;;;;;;;7.20;5.88;;;;;;;;;;6292257;28;20064;-70
2021/05/16 02:43:57;;;;;;;6.38;5.32;;;;;;;;;;6291854;28;20145;-71
2021/05/16 02:46:58;;;;;;;5.70;4.60;;;;;;;;;;6284650;28;20148;-70
2021/05/16 02:49:59;;;;;;;5.85;4.85;;;;;;;;;;6268805;28;20144;-72
2021/05/16 02:53:01;;;;;;;5.45;4.95;;;;;;;;;;6279283;28;20076;-70
2021/05/16 02:56:03;;;;;;;6.97;4.40;;;;;;;;;;6277557;28;20049;-72
2021/05/16 02:59:04;;;;;;;5.45;4.00;;;;;;;;;;6282655;28;20559;-70
2021/05/16 03:02:06;;;;;;;5.43;4.22;;;;;;;;;;6284609;28;20081;-71
2021/05/16 03:05:08;;;;;;;4.88;3.85;;;;;;;;;;6288999;28;20507;-71
2021/05/16 03:08:10;;;;;;;4.50;3.60;;;;;;;;;;6285624;28;20045;-70
2021/05/16 03:11:11;;;;;;;5.25;4.07;;;;;;;;;;6292229;28;20105;-73
2021/05/16 03:14:12;;;;;;;5.55;3.60;;;;;;;;;;6287513;28;20178;-71
2021/05/16 03:17:14;;;;;;;4.18;3.50;;;;;;;;;;6285442;28;20091;-71
2021/05/16 03:20:15;;;;;;;3.75;3.30;;;;;;;;;;6285240;28;20131;-71
2021/05/16 03:23:17;;;;;;;3.45;2.95;;;;;;;;;;6296539;28;20048;-71
2021/05/16 03:26:18;;;;;;;4.00;3.10;;;;;;;;;;6279068;28;20048;-71
2021/05/16 03:29:20;;;;;;;3.75;3.00;;;;;;;;;;6282626;28;20044;-71
2021/05/16 03:32:21;;;;;;;4.03;2.92;;;;;;;;;;6288919;28;20052;-71
2021/05/16 03:35:22;;;;;;;4.25;3.17;;;;;;;;;;6291748;28;20062;-71
2021/05/16 03:38:24;;;;;;;3.20;2.90;;;;;;;;;;6291082;28;20101;-70
2021/05/16 03:41:25;;;;;;;4.50;3.30;;;;;;;;;;6289100;28;20044;-70
2021/05/16 03:44:27;;;;;;;5.47;3.45;;;;;;;;;;6297236;28;20100;-70
2021/05/16 03:47:28;;;;;;;3.75;3.35;;;;;;;;;;6294534;28;20045;-72
2021/05/16 03:50:29;;;;;;;5.43;3.38;;;;;;;;;;6293827;28;20507;-70
2021/05/16 03:53:31;;;;;;;4.25;3.03;;;;;;;;;;6292409;28;20053;-70
2021/05/16 03:56:32;;;;;;;3.80;3.40;;;;;;;;;;6293810;28;20553;-70
2021/05/16 03:59:34;;;;;;;4.03;2.90;;;;;;;;;;6295794;28;20135;-71
2021/05/16 04:02:35;;;;;;;3.17;2.78;;;;;;;;;;6291707;28;20140;-71
2021/05/16 04:05:36;;;;;;;3.85;3.42;;;;;;;;;;6296007;28;20168;-72
2021/05/16 04:08:38;;;;;;;4.18;3.20;;;;;;;;;;6286066;28;20500;-73
2021/05/16 04:11:39;;;;;;;4.72;3.22;;;;;;;;;;6293066;28;20108;-71
2021/05/16 04:14:40;;;;;;;4.25;3.08;;;;;;;;;;6283313;28;20573;-70
2021/05/16 04:17:41;;;;;;;5.32;3.40;;;;;;;;;;6282878;28;20091;-73
2021/05/16 04:20:43;;;;;;;3.20;2.80;;;;;;;;;;6283610;28;20717;-73
2021/05/16 04:23:45;;;;;;;3.00;2.55;;;;;;;;;;6290009;28;20143;-71
2021/05/16 04:26:46;;;;;;;4.53;3.20;;;;;;;;;;6294086;28;20045;-70
2021/05/16 04:29:47;;;;;;;4.85;3.17;;;;;;;;;;6300120;28;20112;-70
2021/05/16 04:32:48;;;;;;;5.35;2.70;;;;;;;;;;6296900;28;20929;-71
2021/05/16 04:35:49;;;;;;;4.65;2.67;;;;;;;;;;6299738;28;20137;-72
2021/05/16 04:38:52;;;;;;;3.67;3.15;;;;;;;;;;6302730;28;20119;-71
2021/05/16 04:41:53;;;;;;;4.97;3.00;;;;;;;;;;6294015;28;20052;-72
2021/05/16 04:44:54;;;;;;;3.90;3.00;;;;;;;;;;6291497;28;20059;-72
2021/05/16 04:47:55;;;;;;;4.55;2.80;;;;;;;;;;6288589;28;20131;-71
2021/05/16 04:50:56;;;;;;;3.20;2.90;;;;;;;;;;6276181;28;20053;-70
2021/05/16 04:53:58;;;;;;;4.88;3.10;;;;;;;;;;6276988;28;20136;-72
2021/05/16 04:57:00;;;;;;;3.63;2.80;;;;;;;;;;6273507;28;20045;-73
2021/05/16 05:00:02;;;;;;;4.88;3.13;;;;;;;;;;6272993;28;20135;-72
2021/05/16 05:03:03;;;;;;;3.03;2.72;;;;;;;;;;6273367;28;20136;-72
2021/05/16 05:06:05;;;;;;;4.35;2.97;;;;;;;;;;6275665;28;20129;-72
2021/05/16 05:09:07;;;;;;;6.03;3.20;;;;;;;;;;6272998;28;20128;-72
2021/05/16 05:12:12;;;;;;;4.78;2.78;;;;;;;;;;6260862;28;20049;-73
2021/05/16 05:15:13;;;;;;;4.15;2.80;;;;;;;;;;6274685;28;20166;-73
2021/05/16 05:18:15;;;;;;;3.17;2.38;;;;;;;;;;6271318;28;20057;-72
2021/05/16 05:21:17;;;;;;;3.75;2.95;;;;;;;;;;6272889;28;20059;-72
2021/05/16 05:24:18;;;;;;;3.50;2.80;;;;;;;;;;6274120;28;20049;-72
2021/05/16 05:27:20;;;;;;;2.75;2.53;;;;;;;;;;6281131;28;20044;-73
2021/05/16 05:30:22;;;;;;;4.05;2.40;;;;;;;;;;6288346;28;20040;-72
2021/05/16 05:33:23;;;;;;;3.10;2.60;;;;;;;;;;6290757;28;20036;-73
2021/05/16 05:36:24;;;;;;;3.13;2.58;;;;;;;;;;6293191;28;20041;-72
2021/05/16 05:39:26;;;;;;;3.00;2.45;;;;;;;;;;6290989;28;20147;-73
2021/05/16 05:42:27;;;;;;;3.63;2.55;;;;;;;;;;6287747;28;20056;-72
2021/05/16 05:45:28;;;;;;;2.90;2.40;;;;;;;;;;6291211;28;20053;-73
2021/05/16 05:48:29;;;;;;;3.28;2.38;;;;;;;;;;6284062;28;20041;-73
2021/05/16 05:51:31;;;;;;;3.33;2.15;;;;;;;;;;6284440;28;20143;-71
2021/05/16 05:54:34;;;;;;;3.38;2.22;;;;;;;;;;6287728;28;20688;-72
2021/05/16 05:57:35;;;;;;;2.70;2.10;;;;;;;;;;6292035;28;20056;-72
2021/05/16 06:00:36;;;;;;;3.92;2.53;;;;;;;;;;6290231;28;20068;-72
2021/05/16 06:03:37;;;;;;;5.03;2.50;;;;;;;;;;6295098;28;20052;-72
2021/05/16 06:06:39;;;;;;;3.22;2.53;;;;;;;;;;6289707;28;20767;-72
2021/05/16 06:09:40;;;;;;;2.75;2.42;;;;;;;;;;6292310;28;20045;-71
2021/05/16 06:12:42;;;;;;;3.95;2.70;;;;;;;;;;6282556;28;20069;-73
2021/05/16 06:15:45;;;;;;;3.88;2.97;;;;;;;;;;6285249;28;20902;-72
2021/05/16 06:18:48;;;;;;;5.20;2.97;;;;;;;;;;6285746;28;20044;-72
2021/05/16 06:21:49;;;;;;;3.08;2.70;;;;;;;;;;6280683;28;20126;-71
2021/05/16 06:24:51;;;;;;;7.65;3.28;;;;;;;;;;6287403;28;20699;-71
2021/05/16 06:27:52;;;;;;;3.72;3.00;;;;;;;;;;6287503;28;20144;-72
2021/05/16 06:30:53;;;;;;;3.53;3.03;;;;;;;;;;6287100;28;20460;-72
2021/05/16 06:33:54;;;;;;;4.10;3.28;;;;;;;;;;6289254;28;20140;-71
2021/05/16 06:36:55;;;;;;;5.75;5.18;;;;;;;;;;6272332;28;20741;-71
2021/05/16 06:39:57;;;;;;;6.50;5.80;;;;;;;;;;6273184;28;20060;-72
2021/05/16 06:42:59;;;;;;;7.55;6.13;;;;;;;;;;6283683;28;20127;-73
2021/05/16 06:46:00;;;;;;;7.40;6.13;;;;;;;;;;6289276;28;20052;-71
2021/05/16 06:49:01;;;;;;;7.13;6.15;;;;;;;;;;6263802;28;20041;-72
2021/05/16 06:52:02;;;;;;;7.32;6.18;;;;;;;;;;6279056;28;20572;-72
2021/05/16 06:55:07;;;;;;;6.30;5.35;;;;;;;;;;6275873;28;20442;-72
2021/05/16 06:58:08;;;;;;;5.97;5.38;;;;;;;;;;6270866;28;20064;-72
2021/05/16 07:01:09;;;;;;;5.70;5.10;;;;;;;;;;6273390;28;20036;-71
2021/05/16 07:04:11;;;;;;;8.70;5.45;;;;;;;;;;6277967;28;20060;-72
2021/05/16 07:07:12;;;;;;;8.02;4.68;;;;;;;;;;6277529;28;20389;-71
2021/05/16 07:10:14;;;;;;;4.95;4.28;;;;;;;;;;6276413;28;20137;-73
2021/05/16 07:13:15;;;;;;;6.93;4.60;;;;;;;;;;6274737;28;20049;-72
2021/05/16 07:16:16;;;;;;;5.32;4.07;;;;;;;;;;6277521;28;20563;-72
2021/05/16 07:19:18;;;;;;;6.32;4.57;;;;;;;;;;6275020;28;20150;-72
2021/05/16 07:22:19;;;;;;;7.00;4.22;;;;;;;;;;6278810;28;20057;-72
2021/05/16 07:25:21;;;;;;;6.07;4.20;;;;;;;;;;6248917;28;20037;-72
2021/05/16 07:28:22;;;;;;;5.30;3.70;;;;;;;;;;6274979;28;20072;-71
2021/05/16 07:31:23;;;;;;;6.35;3.47;;;;;;;;;;6278667;28;21057;-72
2021/05/16 07:34:25;;;;;;;4.97;3.05;;;;;;;;;;6281177;28;20149;-72
2021/05/16 07:37:26;;;;;;;3.28;2.75;;;;;;;;;;6277672;28;20044;-72
2021/05/16 07:40:27;;;;;;;3.50;2.90;;;;;;;;;;6277246;28;20171;-72
2021/05/16 07:43:29;;;;;;;4.28;2.92;;;;;;;;;;6274505;28;20068;-74
2021/05/16 07:46:30;;;;;;;6.50;3.45;;;;;;;;;;6278444;28;20048;-71
2021/05/16 07:49:31;;;;;;;5.63;2.83;;;;;;;;;;6274958;28;20126;-73
2021/05/16 07:52:32;;;;;;;4.30;2.92;;;;;;;;;;6284024;28;20052;-71
2021/05/16 07:55:34;;;;;;;4.10;2.63;;;;;;;;;;6293877;28;20086;-70
2021/05/16 07:58:35;;;;;;;4.82;2.53;;;;;;;;;;6285785;28;20510;-72
2021/05/16 08:01:36;;;;;;;3.25;2.05;;;;;;;;;;6288400;28;20049;-72
2021/05/16 08:04:37;;;;;;;3.10;2.38;;;;;;;;;;6286719;28;20466;-73
2021/05/16 08:07:38;;;;;;;4.30;2.13;;;;;;;;;;6292712;28;20183;-72
2021/05/16 08:10:41;;;;;;;4.40;2.10;;;;;;;;;;6279648;28;20120;-72
2021/05/16 08:13:42;;;;;;;2.60;1.90;;;;;;;;;;6289056;28;20095;-72
2021/05/16 08:16:43;;;;;;;2.85;1.60;;;;;;;;;;6293498;28;20063;-71
2021/05/16 08:19:44;;;;;;;3.95;1.70;;;;;;;;;;6290410;28;20504;-71
2021/05/16 08:22:45;;;;;;;4.10;1.77;;;;;;;;;;6279103;28;20048;-72
2021/05/16 08:25:47;;;;;;;2.53;1.67;;;;;;;;;;6289802;28;20068;-69
2021/05/16 08:28:48;;;;;;;3.50;1.60;;;;;;;;;;6281500;28;20609;-72
2021/05/16 08:31:49;;;;;;;3.35;1.85;;;;;;;;;;6272222;28;20652;-71
2021/05/16 08:34:50;;;;;;;3.85;1.58;;;;;;;;;;6272062;28;20090;-71
2021/05/16 08:37:52;;;;;;;3.22;1.65;;;;;;;;;;6275634;28;20174;-71
2021/05/16 08:40:54;;;;;;;2.47;1.70;;;;;;;;;;6276827;28;20455;-72
2021/05/16 08:43:55;;;;;;;2.05;1.50;;;;;;;;;;6274068;28;20052;-71
2021/05/16 08:46:56;;;;;;;4.90;1.63;;;;;;;;;;6281273;28;20074;-72
2021/05/16 08:49:57;;;;;;;4.18;1.60;;;;;;;;;;6286238;28;20682;-71
2021/05/16 08:52:58;;;;;;;3.58;1.80;;;;;;;;;;6274619;28;20496;-70
2021/05/16 08:56:00;;;;;;;4.00;1.85;;;;;;;;;;6276842;28;20617;-71
2021/05/16 08:59:01;;;;;;;1.88;1.30;;;;;;;;;;6264355;28;20205;-71
2021/05/16 09:02:02;;;;;;;3.85;2.00;;;;;;;;;;6276909;28;20069;-72
2021/05/16 09:05:24;;;;;;;1.80;1.15;;;;;;;;;;6279313;28;20095;-72
2021/05/16 09:08:26;;;;;;;3.92;1.67;;;;;;;;;;6282394;28;20140;-71
2021/05/16 09:11:28;;;;;;;3.78;1.83;;;;;;;;;;6284854;28;20076;-70
2021/05/16 09:14:48;;;;;;;2.60;1.55;;;;;;;;;;6290581;28;20125;-72
2021/05/16 09:17:52;;;;;;;5.05;1.52;;;;;;;;;;6290329;28;20051;-70
2021/05/16 09:21:17;;;;;;;5.30;1.70;;;;;;;;;;6282710;28;20056;-72
2021/05/16 09:24:18;;;;;;;3.30;1.52;;;;;;;;;;6285429;28;20041;-70
2021/05/16 09:27:24;;;;;;;4.15;1.55;;;;;;;;;;6287993;28;20503;-71
2021/05/16 09:30:33;;;;;;;2.03;1.20;;;;;;;;;;6290960;28;20139;-70
2021/05/16 09:33:34;;;;;;;3.15;1.83;;;;;;;;;;6288904;28;20064;-73
2021/05/16 09:36:36;;;;;;;2.85;1.50;;;;;;;;;;6279072;28;20135;-72
2021/05/16 09:39:38;;;;;;;3.65;1.60;;;;;;;;;;6278592;28;20636;-70
2021/05/16 09:42:40;;;;;;;3.17;1.40;;;;;;;;;;6267678;28;20052;-72
2021/05/16 09:46:01;;;;;;;3.65;1.55;;;;;;;;;;6276775;28;20529;-72
2021/05/16 09:49:02;;;;;;;4.63;1.55;;;;;;;;;;6274695;28;20043;-72
2021/05/16 09:52:07;;;;;;;3.30;1.55;;;;;;;;;;6282657;28;20139;-72
2021/05/16 09:55:10;;;;;;;3.63;1.58;;;;;;;;;;6278408;28;20618;-72
2021/05/16 09:58:12;;;;;;;2.95;1.80;;;;;;;;;;6279282;28;20045;-73
2021/05/16 10:01:13;;;;;;;5.63;1.50;;;;;;;;;;6280839;28;20135;-73
2021/05/16 10:04:14;;;;;;;2.95;1.30;;;;;;;;;;6286955;28;20079;-72
2021/05/16 10:07:16;;;;;;;3.25;1.60;;;;;;;;;;6289250;28;20151;-72
2021/05/16 10:10:17;;;;;;;3.22;1.40;;;;;;;;;;6290553;28;20127;-71
2021/05/16 10:13:19;;;;;;;3.10;1.50;;;;;;;;;;6290814;28;20129;-72
2021/05/16 10:16:21;;;;;;;2.95;1.83;;;;;;;;;;6287461;28;20498;-72
2021/05/16 10:19:25;;;;;;;2.08;1.33;;;;;;;;;;6291976;28;20079;-72
2021/05/16 10:22:27;;;;;;;3.38;1.50;;;;;;;;;;6280052;28;20132;-71
2021/05/16 10:25:43;;;;;;;3.00;1.60;;;;;;;;;;6286679;28;20046;-72
2021/05/16 10:28:59;;;;;;;2.70;1.75;;;;;;;;;;6292992;28;20072;-72
2021/05/16 10:32:06;;;;;;;3.97;1.67;;;;;;;;;;6290338;28;20048;-72
2021/05/16 10:35:08;;;;;;;2.67;1.50;;;;;;;;;;6279134;28;20072;-71
2021/05/16 10:38:32;;;;;;;4.82;1.83;;;;;;;;;;6289923;28;20664;-70
2021/05/16 10:41:34;;;;;;;3.53;1.17;;;;;;;;;;6281901;28;20059;-71
2021/05/16 10:44:37;;;;;;;4.30;1.52;;;;;;;;;;6289845;28;20049;-71
2021/05/16 10:47:55;;;;;;;3.97;1.50;;;;;;;;;;6295119;28;20074;-71
2021/05/16 10:50:58;;;;;;;3.47;1.98;;;;;;;;;;6286873;28;20598;-70
2021/05/16 10:54:02;;;;;;;4.90;1.80;;;;;;;;;;6282091;28;20042;-70
2021/05/16 10:57:11;;;;;;;3.60;1.75;;;;;;;;;;6283863;28;20557;-71
2021/05/16 11:00:26;;;;;;;6.45;1.73;;;;;;;;;;6292881;28;20610;-74
2021/05/16 11:03:45;;;;;;;3.67;1.50;;;;;;;;;;6297377;28;20364;-69
2021/05/16 11:06:58;;;;;;;3.10;1.73;;;;;;;;;;6281922;28;20053;-70
2021/05/16 11:10:25;;;;;;;4.03;2.60;;;;;;;;;;6275398;28;20056;-69
2021/05/16 11:13:28;;;;;;;3.85;1.52;;;;;;;;;;6279787;28;20048;-70
2021/05/16 11:16:30;;;;;;;2.85;1.63;;;;;;;;;;6281237;28;20156;-71
2021/05/16 11:19:32;;;;;;;3.90;1.55;;;;;;;;;;6288657;28;20098;-72
2021/05/16 11:22:41;;;;;;;4.65;1.90;;;;;;;;;;6290251;28;20143;-73
2021/05/16 11:25:42;;;;;;;4.25;1.80;;;;;;;;;;6291893;28;20052;-71
2021/05/16 11:28:45;;;;;;;3.88;1.73;;;;;;;;;;6292324;28;20171;-69
2021/05/16 11:31:47;;;;;;;3.72;1.80;;;;;;;;;;6290610;28;20056;-71
2021/05/16 11:35:01;;;;;;;2.88;1.67;;;;;;;;;;6295745;28;20406;-70
2021/05/16 11:38:02;;;;;;;2.25;1.60;;;;;;;;;;6290153;28;20067;-71
2021/05/16 11:41:03;;;;;;;4.03;1.55;;;;;;;;;;6285746;28;20143;-73
2021/05/16 11:44:06;;;;;;;2.33;1.33;;;;;;;;;;6289895;28;20922;-72
2021/05/16 11:47:08;;;;;;;3.97;1.63;;;;;;;;;;6290717;28;20178;-73
2021/05/16 11:50:11;;;;;;;4.72;2.17;;;;;;;;;;6284558;28;20143;-74
2021/05/16 11:53:13;;;;;;;3.83;1.90;;;;;;;;;;6280776;28;20052;-71
2021/05/16 11:56:17;;;;;;;4.18;1.70;;;;;;;;;;6287209;28;20048;-72
2021/05/16 11:59:18;;;;;;;4.30;2.10;;;;;;;;;;6264084;28;20045;-73
2021/05/16 12:02:20;;;;;;;3.15;1.80;;;;;;;;;;6284468;28;20127;-73
2021/05/16 12:05:28;;;;;;;3.72;1.52;;;;;;;;;;6283660;28;20140;-72
2021/05/16 12:08:29;;;;;;;6.53;2.60;;;;;;;;;;6286002;28;20132;-70
2021/05/16 12:11:32;;;;;;;2.83;1.75;;;;;;;;;;6288914;28;20055;-71
2021/05/16 12:14:33;;;;;;;3.30;1.50;;;;;;;;;;6292459;28;20053;-73
2021/05/16 12:17:35;;;;;;;3.42;1.52;;;;;;;;;;6279734;28;20140;-70
2021/05/16 12:20:38;;;;;;;4.72;1.77;;;;;;;;;;6276598;28;20437;-71
2021/05/16 12:23:40;;;;;;;3.83;1.63;;;;;;;;;;6282005;28;20088;-71
2021/05/16 12:26:41;;;;;;;2.80;1.33;;;;;;;;;;6278996;28;20079;-71
2021/05/16 12:29:43;;;;;;;3.03;1.60;;;;;;;;;;6283002;28;20060;-72
2021/05/16 12:32:51;;;;;;;4.50;1.90;;;;;;;;;;6284176;28;20074;-70
2021/05/16 12:35:52;;;;;;;3.90;1.85;;;;;;;;;;6291215;28;20040;-73
2021/05/16 12:38:55;;;;;;;4.60;1.83;;;;;;;;;;6285446;28;20137;-72
2021/05/16 12:41:58;;;;;;;4.63;1.92;;;;;;;;;;6280334;28;20048;-72
2021/05/16 12:45:15;;;;;;;4.07;1.83;;;;;;;;;;6284895;28;20083;-72
2021/05/16 12:48:19;;;;;;;5.22;1.83;;;;;;;;;;6282101;28;20068;-72
2021/05/16 12:51:22;;;;;;;4.10;2.08;;;;;;;;;;6284882;28;20044;-73
2021/05/16 12:54:26;;;;;;;3.60;2.00;;;;;;;;;;6287934;28;20074;-72
2021/05/16 12:57:32;;;;;;;5.68;2.22;;;;;;;;;;6280939;28;20053;-73
2021/05/16 13:00:35;;;;;;;4.45;1.90;;;;;;;;;;6282531;28;21642;-73
2021/05/16 13:03:37;;;;;;;6.05;2.35;;;;;;;;;;6291925;28;20087;-72
2021/05/16 13:06:39;;;;;;;4.35;1.80;;;;;;;;;;6285256;28;20048;-71
2021/05/16 13:09:40;;;;;;;5.57;2.05;;;;;;;;;;6291988;28;20055;-71
2021/05/16 13:12:41;;;;;;;3.08;1.75;;;;;;;;;;6289339;28;20619;-72
2021/05/16 13:15:43;;;;;;;2.92;2.08;;;;;;;;;;6276417;28;20048;-72
2021/05/16 13:18:47;;;;;;;3.90;1.98;;;;;;;;;;6267996;28;20064;-72
2021/05/16 13:21:48;;;;;;;4.78;2.05;;;;;;;;;;6291180;28;20068;-72
2021/05/16 13:24:50;;;;;;;3.65;2.00;;;;;;;;;;6291016;28;20214;-72
2021/05/16 13:27:54;;;;;;;5.07;1.75;;;;;;;;;;6290612;28;20132;-72
2021/05/16 13:30:57;;;;;;;5.10;2.08;;;;;;;;;;6289002;28;20161;-72
2021/05/16 13:33:59;;;;;;;4.57;1.70;;;;;;;;;;6288271;28;20097;-72
2021/05/16 13:37:00;;;;;;;3.17;2.15;;;;;;;;;;6290226;28;20048;-73
2021/05/16 13:40:01;;;;;;;3.35;1.65;;;;;;;;;;6284332;28;20487;-72
2021/05/16 13:43:02;;;;;;;5.20;1.75;;;;;;;;;;6284501;28;20127;-73
2021/05/16 13:46:04;;;;;;;6.45;1.67;;;;;;;;;;6291204;28;20052;-71
2021/05/16 13:49:06;;;;;;;3.75;1.40;;;;;;;;;;6294624;28;20049;-71
2021/05/16 13:52:07;;;;;;;4.30;1.63;;;;;;;;;;6284388;28;22175;-71
2021/05/16 13:55:09;;;;;;;2.78;1.30;;;;;;;;;;6284133;28;20132;-72
2021/05/16 13:58:11;;;;;;;3.42;1.80;;;;;;;;;;6286807;28;20087;-71
2021/05/16 14:01:12;;;;;;;4.25;1.73;;;;;;;;;;6286203;28;20044;-73
2021/05/16 14:04:14;;;;;;;5.97;1.42;;;;;;;;;;6279651;28;20048;-72
2021/05/16 14:07:15;;;;;;;3.15;1.42;;;;;;;;;;6291646;28;20140;-72
2021/05/16 14:10:17;;;;;;;6.60;2.00;;;;;;;;;;6292790;28;20129;-71
2021/05/16 14:13:18;;;;;;;5.43;2.38;;;;;;;;;;6285538;28;20119;-71
2021/05/16 14:16:19;;;;;;;2.65;1.70;;;;;;;;;;6291835;28;20139;-72
2021/05/16 14:19:21;;;;;;;4.95;2.05;;;;;;;;;;6284351;28;20060;-71
2021/05/16 14:22:22;;;;;;;4.32;1.85;;;;;;;;;;6286063;28;20086;-71
2021/05/16 14:25:24;;;;;;;5.00;1.85;;;;;;;;;;6288758;28;20706;-72
2021/05/16 14:28:25;;;;;;;6.63;1.83;;;;;;;;;;6291142;28;20131;-72
2021/05/16 14:31:26;;;;;;;2.95;1.40;;;;;;;;;;6290161;28;20044;-71
2021/05/16 14:34:28;;;;;;;6.35;2.22;;;;;;;;;;6282725;28;20171;-72
2021/05/16 14:37:29;;;;;;;5.95;2.38;;;;;;;;;;6292359;28;20140;-72
2021/05/16 14:40:30;;;;;;;7.32;2.10;;;;;;;;;;6296338;28;20452;-73
2021/05/16 14:43:33;;;;;;;5.55;1.98;;;;;;;;;;6288507;28;20117;-71
2021/05/16 14:46:34;;;;;;;6.00;2.03;;;;;;;;;;6283847;28;20080;-72
2021/05/16 14:49:36;;;;;;;6.03;2.30;;;;;;;;;;6290025;28;20083;-72
2021/05/16 14:52:37;;;;;;;5.53;1.98;;;;;;;;;;6290780;28;20135;-71
2021/05/16 14:55:39;;;;;;;6.43;2.05;;;;;;;;;;6290721;28;20059;-73
2021/05/16 14:58:42;;;;;;;3.72;2.00;;;;;;;;;;6293434;28;20048;-71
2021/05/16 15:01:43;;;;;;;3.95;2.08;;;;;;;;;;6292961;28;20599;-74
2021/05/16 15:04:45;;;;;;;5.80;2.45;;;;;;;;;;6292761;28;20098;-76
2021/05/16 15:07:46;;;;;;;8.27;2.83;;;;;;;;;;6295189;28;20048;-76
2021/05/16 15:10:47;;;;;;;6.90;2.58;;;;;;;;;;6296895;28;20067;-77
2021/05/16 15:13:48;;;;;;;7.35;3.03;;;;;;;;;;6281662;28;20614;-74
2021/05/16 15:16:49;;;;;;;4.72;2.45;;;;;;;;;;6274771;28;20045;-76
2021/05/16 15:19:51;;;;;;;6.65;3.03;;;;;;;;;;6290435;28;20457;-71
2021/05/16 15:22:53;;;;;;;10.63;3.65;;;;;;;;;;6284761;28;20055;-72
2021/05/16 15:25:54;;;;;;;9.57;3.33;;;;;;;;;;6290395;28;20052;-73
2021/05/16 15:28:56;;;;;;;6.45;3.38;;;;;;;;;;6288790;28;20056;-73
2021/05/16 15:31:57;;;;;;;4.68;3.28;;;;;;;;;;6291269;28;20084;-72
2021/05/16 15:34:59;;;;;;;10.85;4.40;;;;;;;;;;6291481;28;20437;-74
2021/05/16 15:38:00;;;;;;;9.35;3.55;;;;;;;;;;6287961;28;20075;-73
2021/05/16 15:41:03;;;;;;;6.32;2.92;;;;;;;;;;6285624;28;20046;-73
2021/05/16 15:44:05;;;;;;;5.95;3.13;;;;;;;;;;6289449;28;20155;-72
2021/05/16 15:47:06;;;;;;;8.30;3.47;;;;;;;;;;6292782;28;20181;-74
2021/05/16 15:50:09;;;;;;;5.68;3.35;;;;;;;;;;6293894;28;20673;-73
2021/05/16 15:53:11;;;;;;;6.00;3.22;;;;;;;;;;6289656;28;21047;-72
2021/05/16 15:56:12;;;;;;;5.18;3.90;;;;;;;;;;6287612;28;20397;-73
2021/05/16 15:59:13;;;;;;;6.35;3.85;;;;;;;;;;6292188;28;20110;-73
2021/05/16 16:02:14;;;;;;;9.18;3.65;;;;;;;;;;6291365;28;20531;-73
2021/05/16 16:05:17;;;;;;;9.50;4.18;;;;;;;;;;6291727;28;20067;-72
2021/05/16 16:08:18;;;;;;;6.95;3.90;;;;;;;;;;6278036;28;20063;-73
2021/05/16 16:11:19;;;;;;;8.13;4.40;;;;;;;;;;6276288;28;20479;-72
2021/05/16 16:14:20;;;;;;;8.57;4.63;;;;;;;;;;6279747;28;20041;-73
2021/05/16 16:17:21;;;;;;;6.63;4.00;;;;;;;;;;6271304;28;20037;-73
2021/05/16 16:20:23;;;;;;;8.18;4.65;;;;;;;;;;6289962;28;20043;-70
2021/05/16 16:23:25;;;;;;;6.07;4.03;;;;;;;;;;6279169;28;20045;-73
2021/05/16 16:26:26;;;;;;;9.60;4.20;;;;;;;;;;6280987;28;20660;-73
2021/05/16 16:29:27;;;;;;;8.13;5.20;;;;;;;;;;6282918;28;20048;-72
2021/05/16 16:32:28;;;;;;;7.75;4.78;;;;;;;;;;6286543;28;20076;-70
2021/05/16 16:35:32;;;;;;;7.28;5.03;;;;;;;;;;6280118;28;20399;-75
2021/05/16 16:38:32;;;;;;;;;;;;;;;;;;6269288;28;20590;-70
2021/05/16 16:41:34;;;;;;;6.88;4.85;;;;;;;;;;6284371;28;19927;-72
2021/05/16 16:44:35;;;;;;;7.88;4.80;;;;;;;;;;6286576;28;20068;-72
2021/05/16 16:47:36;;;;;;;10.13;5.32;;;;;;;;;;6291396;28;20080;-72
2021/05/16 16:50:38;;;;;;;10.77;5.60;;;;;;;;;;6289746;28;20418;-73
2021/05/16 16:53:40;;;;;;;13.10;5.07;;;;;;;;;;6273187;28;20049;-72
2021/05/16 16:56:41;;;;;;;5.72;4.60;;;;;;;;;;6285583;28;20041;-71
2021/05/16 16:59:42;;;;;;;6.43;4.72;;;;;;;;;;6289064;28;20054;-72
2021/05/16 17:02:44;;;;;;;8.32;5.45;;;;;;;;;;6290328;28;20044;-72
2021/05/16 17:05:46;;;;;;;8.32;5.47;;;;;;;;;;6284956;28;20135;-72
2021/05/16 17:08:47;;;;;;;8.10;5.30;;;;;;;;;;6288005;28;20262;-72
2021/05/16 17:11:48;;;;;;;6.60;5.22;;;;;;;;;;6284817;28;20081;-71
2021/05/16 17:14:50;;;;;;;11.10;4.93;;;;;;;;;;6292293;28;20044;-72
2021/05/16 17:17:51;;;;;;;8.05;5.60;;;;;;;;;;6290110;28;20056;-72
2021/05/16 17:20:53;;;;;;;9.10;5.60;;;;;;;;;;6288793;28;20452;-72
2021/05/16 17:23:54;;;;;;;9.27;5.53;;;;;;;;;;6277296;28;20049;-72
2021/05/16 17:26:55;;;;;;;8.35;4.93;;;;;;;;;;6274530;28;20085;-72
2021/05/16 17:29:56;;;;;;;7.57;5.07;;;;;;;;;;6277518;28;20465;-73
2021/05/16 17:32:57;;;;;;;7.20;5.15;;;;;;;;;;6271141;28;20062;-72
2021/05/16 17:35:59;;;;;;;10.30;5.65;;;;;;;;;;6275693;28;20143;-72
2021/05/16 17:39:00;;;;;;;8.60;4.97;;;;;;;;;;6273401;28;20681;-72
2021/05/16 17:42:01;;;;;;;6.07;4.68;;;;;;;;;;6273150;28;20049;-73
2021/05/16 17:45:04;;;;;;;10.05;5.38;;;;;;;;;;6279413;28;20490;-72
2021/05/16 17:48:06;;;;;;;7.88;4.60;;;;;;;;;;6285744;28;20233;-71
2021/05/16 17:51:09;;;;;;;7.85;4.30;;;;;;;;;;6277036;28;20049;-73
2021/05/16 17:54:10;;;;;;;7.10;4.35;;;;;;;;;;6278153;28;20082;-73
2021/05/16 17:57:11;;;;;;;5.80;3.63;;;;;;;;;;6271596;28;20557;-73
2021/05/16 18:00:14;;;;;;;8.85;4.32;;;;;;;;;;6279179;28;20144;-72
2021/05/16 18:03:15;;;;;;;5.78;4.25;;;;;;;;;;6271397;28;20053;-72
2021/05/16 18:06:19;;;;;;;7.20;3.70;;;;;;;;;;6273082;28;20048;-74
2021/05/16 18:09:20;;;;;;;7.88;4.43;;;;;;;;;;6274894;28;20044;-72
2021/05/16 18:12:21;;;;;;;6.18;4.28;;;;;;;;;;6296200;28;20102;-71